Time;durP1;ratioP1;P1;durP2;ratioP2;P2;SDS_P1;SDS_P2;PMS_P1;PMS_P2;Temp;Humidity;BMP_temperature;BMP_pressure;BME280_temperature;BME280_humidity;BME280_pressure;Samples;Min_cycle;Max_cycle;Signal;HPM_P1;HPM_P2
2021/04/30 00:00:08;;;;;;;10.00;3.40;;;18.20;63.90;;;;;;5093564;28;20018;-73
2021/04/30 00:02:36;;;;;;;16.50;5.80;;;18.20;63.90;;;;;;5092252;28;20050;-73
2021/04/30 00:05:05;;;;;;;9.23;3.80;;;18.20;64.00;;;;;;5089233;28;20008;-73
2021/04/30 00:07:31;;;;;;;15.45;5.20;;;18.20;64.10;;;;;;5092529;28;20371;-73
2021/04/30 00:09:58;;;;;;;8.38;3.75;;;18.20;64.10;;;;;;5092814;28;20017;-73
2021/04/30 00:12:25;;;;;;;10.57;3.47;;;18.20;64.10;;;;;;5092928;28;20032;-73
2021/04/30 00:14:51;;;;;;;6.75;3.78;;;18.20;64.20;;;;;;5088118;28;20043;-73
2021/04/30 00:17:18;;;;;;;10.50;4.72;;;18.10;64.20;;;;;;5086393;28;20081;-73
2021/04/30 00:19:44;;;;;;;10.52;3.80;;;18.10;64.30;;;;;;5091989;28;20020;-73
2021/04/30 00:22:11;;;;;;;10.27;3.42;;;18.10;64.40;;;;;;5083616;28;20097;-72
2021/04/30 00:24:39;;;;;;;11.95;3.97;;;18.10;64.40;;;;;;5091308;28;20028;-73
2021/04/30 00:27:07;;;;;;;15.48;4.45;;;18.10;64.50;;;;;;5092814;28;20020;-73
2021/04/30 00:29:34;;;;;;;10.23;3.45;;;18.10;64.60;;;;;;5092633;28;20021;-73
2021/04/30 00:32:00;;;;;;;12.73;3.75;;;18.10;64.70;;;;;;5091819;28;20119;-73
2021/04/30 00:34:27;;;;;;;9.73;3.40;;;18.10;64.80;;;;;;5092714;28;20028;-73
2021/04/30 00:36:53;;;;;;;10.93;4.80;;;18.10;64.90;;;;;;5091607;28;20514;-73
2021/04/30 00:39:20;;;;;;;10.38;4.07;;;18.10;64.90;;;;;;5086115;28;20480;-73
2021/04/30 00:41:47;;;;;;;6.85;3.83;;;18.10;65.00;;;;;;5091524;28;20451;-73
2021/04/30 00:44:13;;;;;;;8.23;3.30;;;18.10;65.20;;;;;;5086224;28;20020;-73
2021/04/30 00:46:40;;;;;;;11.35;3.95;;;18.10;65.30;;;;;;5090686;28;20103;-73
2021/04/30 00:49:06;;;;;;;8.25;4.55;;;18.10;65.40;;;;;;5092148;28;20013;-73
2021/04/30 00:51:33;;;;;;;9.93;3.58;;;18.10;65.60;;;;;;5089520;28;20099;-73
2021/04/30 00:54:00;;;;;;;8.05;3.80;;;18.10;65.60;;;;;;5090633;28;20032;-73
2021/04/30 00:56:27;;;;;;;8.15;3.28;;;18.00;65.70;;;;;;5092344;28;20490;-73
2021/04/30 00:58:53;;;;;;;6.03;3.40;;;18.10;65.80;;;;;;5091174;28;20031;-74
2021/04/30 01:01:20;;;;;;;10.43;3.72;;;18.00;65.90;;;;;;5092286;28;20032;-74
2021/04/30 01:03:48;;;;;;;8.73;3.85;;;18.00;65.90;;;;;;5087770;28;20459;-73
2021/04/30 01:06:15;;;;;;;12.10;3.13;;;18.00;65.90;;;;;;5092000;28;20024;-74
2021/04/30 01:08:42;;;;;;;8.48;3.25;;;18.00;66.00;;;;;;5091978;28;20027;-74
2021/04/30 01:11:09;;;;;;;13.57;3.83;;;18.00;66.00;;;;;;5077751;28;20023;-74
2021/04/30 01:13:35;;;;;;;10.88;3.30;;;18.00;66.10;;;;;;5091970;28;20070;-74
2021/04/30 01:16:02;;;;;;;9.05;3.67;;;18.00;66.00;;;;;;5088507;28;20013;-73
2021/04/30 01:18:28;;;;;;;10.73;4.53;;;18.00;66.10;;;;;;5090393;28;20107;-74
2021/04/30 01:20:55;;;;;;;6.68;3.20;;;18.00;66.00;;;;;;5090984;28;20020;-74
2021/04/30 01:23:21;;;;;;;8.77;3.08;;;18.00;66.00;;;;;;5087397;28;20016;-75
2021/04/30 01:25:48;;;;;;;11.25;3.40;;;18.00;66.00;;;;;;5088244;28;20016;-73
2021/04/30 01:28:14;;;;;;;8.40;2.90;;;18.00;66.00;;;;;;5091421;28;20028;-73
2021/04/30 01:30:41;;;;;;;8.15;2.95;;;18.00;66.00;;;;;;5091553;28;20157;-73
2021/04/30 01:33:19;;;;;;;7.43;2.97;;;18.00;66.00;;;;;;5090544;28;20034;-74
2021/04/30 01:35:45;;;;;;;6.55;3.63;;;18.00;66.00;;;;;;5091132;28;20039;-74
2021/04/30 01:38:12;;;;;;;9.35;3.22;;;18.00;66.00;;;;;;5090313;28;20020;-74
2021/04/30 01:40:39;;;;;;;8.70;3.35;;;17.90;66.00;;;;;;5091111;28;20017;-74
2021/04/30 01:43:14;;;;;;;8.98;3.65;;;17.90;66.10;;;;;;5095835;28;20024;-73
2021/04/30 01:46:20;;;;;;;6.70;2.90;;;17.90;66.00;;;;;;5087923;28;20054;-73
2021/04/30 01:49:26;;;;;;;9.95;4.32;;;17.90;66.00;;;;;;5088932;28;20529;-73
2021/04/30 01:51:53;;;;;;;4.53;2.30;;;17.90;66.10;;;;;;5087425;28;20032;-73
2021/04/30 01:54:20;;;;;;;8.02;2.28;;;17.90;66.00;;;;;;5090380;28;20446;-72
2021/04/30 01:56:47;;;;;;;7.15;2.03;;;17.90;66.00;;;;;;5090479;28;20020;-72
2021/04/30 01:59:14;;;;;;;9.82;3.80;;;17.90;66.10;;;;;;5090127;28;20024;-74
2021/04/30 02:01:40;;;;;;;6.75;2.80;;;17.90;66.10;;;;;;5091183;28;20015;-75
2021/04/30 02:04:10;;;;;;;8.35;2.90;;;17.90;66.10;;;;;;5089438;28;20056;-72
2021/04/30 02:06:41;;;;;;;5.07;2.30;;;17.90;66.10;;;;;;5090718;28;20089;-74
2021/04/30 02:09:08;;;;;;;3.65;2.10;;;17.90;66.10;;;;;;5090787;28;20023;-72
2021/04/30 02:11:36;;;;;;;5.45;2.60;;;17.90;66.10;;;;;;5081048;28;20024;-72
2021/04/30 02:14:04;;;;;;;8.13;3.28;;;17.80;66.10;;;;;;5088229;28;20036;-72
2021/04/30 02:16:33;;;;;;;6.35;2.50;;;17.80;66.10;;;;;;5089671;28;20016;-73
2021/04/30 02:19:00;;;;;;;6.18;2.13;;;17.80;66.10;;;;;;5090600;28;20020;-73
2021/04/30 02:21:26;;;;;;;6.68;3.25;;;17.80;66.10;;;;;;5079855;28;20024;-72
2021/04/30 02:23:54;;;;;;;8.98;2.92;;;17.80;66.10;;;;;;5087101;28;20067;-72
2021/04/30 02:26:22;;;;;;;10.38;2.15;;;17.80;66.10;;;;;;5064087;28;20111;-73
2021/04/30 02:28:49;;;;;;;6.80;2.38;;;17.80;66.20;;;;;;5086236;28;20016;-73
2021/04/30 02:31:16;;;;;;;7.57;2.83;;;17.80;66.20;;;;;;5087644;28;20085;-73
2021/04/30 02:33:43;;;;;;;6.35;3.53;;;17.80;66.20;;;;;;5078962;28;20478;-73
2021/04/30 02:36:10;;;;;;;8.13;2.15;;;17.80;66.30;;;;;;5083759;28;20528;-72
2021/04/30 02:38:37;;;;;;;10.10;2.40;;;17.80;66.30;;;;;;5087197;28;20028;-72
2021/04/30 02:41:04;;;;;;;7.13;2.47;;;17.80;66.40;;;;;;5090389;28;20295;-72
2021/04/30 02:43:31;;;;;;;6.95;2.25;;;17.70;66.50;;;;;;5089817;28;20024;-72
2021/04/30 02:45:59;;;;;;;7.38;2.50;;;17.70;66.60;;;;;;5089636;28;20024;-72
2021/04/30 02:48:32;;;;;;;11.40;2.78;;;17.70;66.70;;;;;;5090465;28;20016;-73
2021/04/30 02:51:01;;;;;;;9.23;2.90;;;17.70;66.90;;;;;;5085407;28;20442;-74
2021/04/30 02:53:27;;;;;;;5.05;2.40;;;17.70;66.90;;;;;;5090321;28;20108;-73
2021/04/30 02:55:54;;;;;;;10.80;3.22;;;17.70;67.00;;;;;;5088922;28;20031;-72
2021/04/30 02:58:21;;;;;;;7.97;3.30;;;17.70;67.20;;;;;;5083772;28;20402;-72
2021/04/30 03:00:48;;;;;;;9.02;2.15;;;17.70;67.30;;;;;;5087662;28;20528;-72
2021/04/30 03:03:15;;;;;;;8.70;3.00;;;17.70;67.40;;;;;;5089082;28;20028;-73
2021/04/30 03:05:41;;;;;;;8.20;2.65;;;17.70;67.40;;;;;;5090199;28;20009;-72
2021/04/30 03:08:08;;;;;;;8.85;2.90;;;17.70;67.40;;;;;;5090428;28;20055;-72
2021/04/30 03:10:35;;;;;;;6.90;3.00;;;17.70;67.50;;;;;;5094381;28;20031;-73
2021/04/30 03:13:02;;;;;;;4.57;1.80;;;17.70;67.50;;;;;;5093098;28;20494;-73
2021/04/30 03:15:29;;;;;;;11.65;2.55;;;17.70;67.50;;;;;;5094135;28;20043;-72
2021/04/30 03:17:56;;;;;;;8.93;2.78;;;17.70;67.50;;;;;;5093259;28;20024;-72
2021/04/30 03:20:23;;;;;;;4.15;2.22;;;17.60;67.40;;;;;;5087365;28;20353;-73
2021/04/30 03:22:50;;;;;;;7.35;2.67;;;17.70;67.50;;;;;;5091434;28;20024;-72
2021/04/30 03:25:18;;;;;;;8.88;2.25;;;17.60;67.50;;;;;;5092526;28;20015;-72
2021/04/30 03:27:45;;;;;;;11.30;3.08;;;17.60;68.10;;;;;;5093948;28;20395;-73
2021/04/30 03:30:13;;;;;;;20.73;13.23;;;17.60;67.50;;;;;;5092422;28;20040;-72
2021/04/30 03:32:40;;;;;;;29.98;16.67;;;17.60;67.50;;;;;;5093900;28;20050;-73
2021/04/30 03:35:08;;;;;;;19.80;13.43;;;17.60;67.50;;;;;;5092858;28;20028;-73
2021/04/30 03:37:35;;;;;;;14.80;10.30;;;17.60;67.60;;;;;;5093624;28;20023;-72
2021/04/30 03:40:03;;;;;;;10.10;6.40;;;17.60;67.60;;;;;;5092977;28;20024;-72
2021/04/30 03:42:29;;;;;;;11.65;5.30;;;17.60;67.70;;;;;;5092759;28;20028;-73
2021/04/30 03:44:56;;;;;;;6.85;3.83;;;17.60;67.70;;;;;;5087809;28;20050;-74
2021/04/30 03:47:22;;;;;;;12.80;4.20;;;17.60;67.70;;;;;;5090820;28;20542;-73
2021/04/30 03:49:49;;;;;;;9.82;3.25;;;17.50;67.70;;;;;;5092550;28;20024;-73
2021/04/30 03:52:15;;;;;;;9.60;3.33;;;17.60;67.80;;;;;;5092810;28;20048;-73
2021/04/30 03:54:42;;;;;;;11.10;2.60;;;17.60;67.80;;;;;;5092405;28;20127;-72
2021/04/30 03:57:08;;;;;;;5.45;2.03;;;17.50;67.80;;;;;;5092991;28;20352;-73
2021/04/30 03:59:35;;;;;;;4.22;1.77;;;17.50;67.80;;;;;;5092725;28;20050;-72
2021/04/30 04:02:01;;;;;;;4.82;1.45;;;17.50;68.10;;;;;;5089788;28;20554;-72
2021/04/30 04:04:28;;;;;;;3.72;1.50;;;17.50;68.20;;;;;;5086287;28;20020;-72
2021/04/30 04:06:54;;;;;;;8.02;1.90;;;17.50;68.50;;;;;;5090181;28;20024;-71
2021/04/30 04:09:21;;;;;;;9.80;1.85;;;17.50;68.60;;;;;;5090107;28;20028;-69
2021/04/30 04:11:47;;;;;;;4.75;1.00;;;17.50;68.70;;;;;;5092763;28;20020;-74
2021/04/30 04:14:14;;;;;;;2.97;1.42;;;17.50;68.80;;;;;;5092235;28;20073;-76
2021/04/30 04:16:40;;;;;;;19.05;13.02;;;17.50;68.90;;;;;;5092747;28;20085;-75
2021/04/30 04:19:07;;;;;;;29.38;18.70;;;17.50;69.00;;;;;;5092315;28;20024;-70
2021/04/30 04:21:33;;;;;;;21.70;16.27;;;17.50;68.90;;;;;;5092097;28;20020;-71
2021/04/30 04:24:00;;;;;;;17.60;11.48;;;17.50;68.90;;;;;;5093116;28;20040;-69
2021/04/30 04:26:26;;;;;;;12.98;8.02;;;17.50;68.80;;;;;;5091363;28;20020;-74
2021/04/30 04:28:53;;;;;;;15.02;6.95;;;17.50;68.70;;;;;;5089786;28;20379;-73
2021/04/30 04:31:19;;;;;;;14.88;8.13;;;17.50;68.60;;;;;;5086049;28;20032;-72
2021/04/30 04:33:46;;;;;;;16.40;10.25;;;17.50;68.50;;;;;;5087114;28;20012;-73
2021/04/30 04:36:13;;;;;;;10.90;7.53;;;17.50;68.40;;;;;;5082234;28;20019;-74
2021/04/30 04:38:39;;;;;;;10.23;6.40;;;17.50;68.30;;;;;;5085062;28;20020;-72
2021/04/30 04:41:05;;;;;;;13.32;4.78;;;17.50;68.30;;;;;;5088436;28;20550;-72
2021/04/30 04:43:32;;;;;;;10.20;4.25;;;17.50;68.20;;;;;;5087826;28;20016;-73
2021/04/30 04:45:58;;;;;;;8.30;2.97;;;17.50;68.10;;;;;;5087826;28;20035;-74
2021/04/30 04:48:25;;;;;;;4.35;2.15;;;17.50;68.00;;;;;;5090103;28;20020;-72
2021/04/30 04:50:52;;;;;;;4.18;1.85;;;17.40;67.90;;;;;;5078009;28;20043;-71
2021/04/30 04:53:19;;;;;;;8.80;2.03;;;17.50;67.90;;;;;;5078452;28;20527;-72
2021/04/30 04:55:45;;;;;;;5.97;2.88;;;17.50;67.90;;;;;;5081305;28;20157;-74
2021/04/30 04:58:12;;;;;;;9.07;2.97;;;17.50;67.80;;;;;;5078817;28;20025;-74
2021/04/30 05:00:38;;;;;;;5.97;2.13;;;17.50;67.70;;;;;;5082273;28;20382;-74
2021/04/30 05:03:05;;;;;;;7.80;3.45;;;17.50;67.70;;;;;;5081424;28;20020;-72
2021/04/30 05:05:31;;;;;;;8.65;2.85;;;17.40;67.60;;;;;;5077301;28;20036;-74
2021/04/30 05:07:58;;;;;;;10.77;4.07;;;17.40;67.70;;;;;;5085581;28;20065;-74
2021/04/30 05:10:25;;;;;;;4.55;1.88;;;17.40;67.80;;;;;;5069537;28;20028;-74
2021/04/30 05:12:53;;;;;;;4.55;1.63;;;17.40;67.90;;;;;;5078111;28;20026;-73
2021/04/30 05:15:21;;;;;;;6.85;1.92;;;17.40;68.00;;;;;;5075643;28;20475;-74
2021/04/30 05:17:48;;;;;;;10.65;2.15;;;17.40;68.10;;;;;;5079106;28;20028;-73
2021/04/30 05:20:14;;;;;;;5.05;2.10;;;17.40;68.30;;;;;;5076879;28;20021;-73
2021/04/30 05:22:42;;;;;;;6.32;1.90;;;17.40;68.30;;;;;;5078114;28;20028;-73
2021/04/30 05:25:12;;;;;;;3.95;1.65;;;17.40;68.40;;;;;;5079137;28;20035;-73
2021/04/30 05:27:43;;;;;;;5.43;2.10;;;17.40;68.50;;;;;;5090258;28;20024;-73
2021/04/30 05:30:11;;;;;;;4.30;2.00;;;17.40;68.60;;;;;;5090292;28;20016;-72
2021/04/30 05:32:37;;;;;;;6.47;1.70;;;17.40;68.70;;;;;;5091318;28;20452;-73
2021/04/30 05:35:05;;;;;;;7.80;2.35;;;17.40;68.70;;;;;;5090516;28;20016;-73
2021/04/30 05:37:32;;;;;;;6.22;2.00;;;17.40;68.90;;;;;;5091644;28;20023;-72
2021/04/30 05:39:59;;;;;;;6.22;2.17;;;17.40;68.90;;;;;;5090397;28;20471;-73
2021/04/30 05:42:27;;;;;;;8.55;2.15;;;17.40;69.10;;;;;;5091332;28;20051;-73
2021/04/30 05:44:53;;;;;;;5.38;2.10;;;17.40;69.20;;;;;;5084618;28;20031;-73
2021/04/30 05:47:21;;;;;;;4.25;3.78;;;17.40;69.30;;;;;;5083755;28;20028;-73
2021/04/30 05:49:47;;;;;;;7.63;2.45;;;17.40;69.40;;;;;;5090488;28;20008;-73
2021/04/30 05:52:14;;;;;;;7.82;2.13;;;17.40;69.40;;;;;;5090154;28;20128;-72
2021/04/30 05:54:42;;;;;;;5.95;2.03;;;17.40;69.50;;;;;;5091102;28;20036;-72
2021/04/30 05:57:09;;;;;;;6.13;2.78;;;17.40;69.60;;;;;;5090168;28;20073;-73
2021/04/30 05:59:35;;;;;;;6.60;1.92;;;17.40;69.70;;;;;;5091046;28;20020;-72
2021/04/30 06:02:02;;;;;;;6.20;2.15;;;17.40;69.90;;;;;;5090107;28;20020;-72
2021/04/30 06:04:28;;;;;;;6.28;2.13;;;17.40;69.90;;;;;;5091095;28;20016;-72
2021/04/30 06:06:55;;;;;;;6.15;2.58;;;17.40;70.00;;;;;;5088850;28;20031;-73
2021/04/30 06:09:22;;;;;;;8.07;2.30;;;17.40;70.10;;;;;;5084407;28;20012;-72
2021/04/30 06:11:48;;;;;;;8.23;2.60;;;17.40;70.20;;;;;;5084452;28;20078;-72
2021/04/30 06:14:15;;;;;;;5.85;2.00;;;17.40;70.30;;;;;;5089480;28;20081;-73
2021/04/30 06:16:41;;;;;;;6.93;2.17;;;17.40;70.40;;;;;;5090971;28;20016;-73
2021/04/30 06:19:08;;;;;;;7.93;2.17;;;17.40;70.50;;;;;;5086677;28;20072;-72
2021/04/30 06:21:35;;;;;;;7.40;2.72;;;17.40;70.60;;;;;;5090780;28;20028;-73
2021/04/30 06:24:02;;;;;;;4.45;1.88;;;17.40;71.30;;;;;;5089956;28;20020;-73
2021/04/30 06:26:29;;;;;;;10.38;2.95;;;17.40;70.60;;;;;;5090323;28;20149;-73
2021/04/30 06:28:55;;;;;;;6.13;1.85;;;17.40;70.60;;;;;;5090559;28;20020;-73
2021/04/30 06:31:23;;;;;;;9.05;3.53;;;17.40;70.70;;;;;;5089488;28;20503;-73
2021/04/30 06:33:50;;;;;;;3.38;2.20;;;17.40;70.80;;;;;;5088300;28;20490;-74
2021/04/30 06:36:17;;;;;;;7.82;2.70;;;17.40;70.80;;;;;;5088871;28;20024;-73
2021/04/30 06:38:43;;;;;;;5.10;1.98;;;17.40;70.80;;;;;;5090644;28;20474;-73
2021/04/30 06:41:10;;;;;;;3.67;1.88;;;17.40;70.80;;;;;;5089342;28;20568;-73
2021/04/30 06:43:37;;;;;;;8.00;2.72;;;17.50;70.90;;;;;;5083215;28;20119;-73
2021/04/30 06:46:03;;;;;;;5.10;1.55;;;17.50;70.90;;;;;;5090068;28;20009;-74
2021/04/30 06:48:30;;;;;;;5.22;1.60;;;17.40;70.80;;;;;;5089792;28;20516;-73
2021/04/30 06:50:57;;;;;;;8.70;1.77;;;17.50;70.90;;;;;;5089611;28;20509;-73
2021/04/30 06:53:23;;;;;;;5.43;2.05;;;17.50;70.90;;;;;;5089292;28;20019;-73
2021/04/30 06:55:50;;;;;;;6.47;2.55;;;17.50;70.90;;;;;;5090074;28;20502;-73
2021/04/30 06:58:16;;;;;;;7.28;2.10;;;17.50;71.00;;;;;;5082481;28;20097;-74
2021/04/30 07:00:43;;;;;;;7.38;1.92;;;17.50;71.00;;;;;;5090090;28;20100;-74
2021/04/30 07:03:09;;;;;;;7.32;2.35;;;17.50;71.00;;;;;;5089725;28;20027;-73
2021/04/30 07:05:36;;;;;;;6.95;2.58;;;17.50;71.00;;;;;;5082671;28;20379;-74
2021/04/30 07:08:03;;;;;;;10.55;2.78;;;17.50;71.00;;;;;;5076308;28;20487;-74
2021/04/30 07:10:31;;;;;;;5.70;2.97;;;17.50;70.90;;;;;;5088887;28;20034;-74
2021/04/30 07:12:58;;;;;;;8.60;3.42;;;17.60;71.00;;;;;;5087118;28;20020;-73
2021/04/30 07:15:24;;;;;;;6.45;3.60;;;17.60;70.90;;;;;;5089193;28;20028;-74
2021/04/30 07:17:51;;;;;;;9.65;3.42;;;17.60;70.90;;;;;;5090136;28;20028;-74
2021/04/30 07:20:18;;;;;;;6.65;2.75;;;17.60;70.80;;;;;;5089215;28;20103;-76
2021/04/30 07:22:44;;;;;;;9.65;3.20;;;17.60;70.70;;;;;;5086326;28;20499;-73
2021/04/30 07:25:11;;;;;;;8.57;3.17;;;17.70;70.60;;;;;;5090457;28;20012;-73
2021/04/30 07:27:37;;;;;;;3.90;3.30;;;17.70;70.50;;;;;;5087358;28;20494;-73
2021/04/30 07:30:05;;;;;;;6.15;2.10;;;17.70;70.40;;;;;;5084465;28;20367;-74
2021/04/30 07:32:31;;;;;;;8.35;2.70;;;17.70;70.30;;;;;;5088348;28;20031;-73
2021/04/30 07:34:58;;;;;;;8.82;2.17;;;17.80;70.30;;;;;;5089969;28;20033;-74
2021/04/30 07:37:25;;;;;;;4.78;1.75;;;17.80;70.10;;;;;;5088998;28;20028;-74
2021/04/30 07:39:51;;;;;;;3.25;2.03;;;17.80;70.00;;;;;;5087237;28;20012;-74
2021/04/30 07:42:18;;;;;;;3.97;1.58;;;17.90;70.00;;;;;;5089494;28;20558;-74
2021/04/30 07:44:44;;;;;;;3.15;1.30;;;17.90;69.90;;;;;;5089112;28;20039;-73
2021/04/30 07:47:11;;;;;;;4.95;1.63;;;17.90;69.70;;;;;;5090020;28;20105;-74
2021/04/30 07:49:37;;;;;;;5.95;1.63;;;17.90;69.60;;;;;;5088711;28;20016;-74
2021/04/30 07:52:05;;;;;;;8.98;1.63;;;18.00;69.40;;;;;;5087474;28;20483;-74
2021/04/30 07:54:31;;;;;;;1.95;0.90;;;18.00;69.20;;;;;;5087749;28;20127;-74
2021/04/30 07:56:58;;;;;;;6.90;1.42;;;18.00;68.80;;;;;;5097475;28;20034;-76
2021/04/30 07:59:24;;;;;;;5.13;0.85;;;18.10;68.60;;;;;;5092816;28;20058;-74
2021/04/30 08:01:51;;;;;;;5.97;1.02;;;18.10;68.50;;;;;;5093080;28;20019;-76
2021/04/30 08:04:17;;;;;;;11.38;3.30;;;18.10;68.20;;;;;;5093048;28;20032;-77
2021/04/30 08:06:44;;;;;;;3.85;1.15;;;18.10;67.90;;;;;;5092340;28;20008;-74
2021/04/30 08:09:11;;;;;;;3.30;0.77;;;18.20;67.60;;;;;;5075300;28;20020;-74
2021/04/30 08:11:38;;;;;;;2.42;0.90;;;18.20;67.40;;;;;;5092171;28;20020;-77
2021/04/30 08:14:08;;;;;;;3.15;0.90;;;18.30;67.10;;;;;;5088088;28;20075;-77
2021/04/30 08:16:36;;;;;;;2.30;0.75;;;18.30;66.90;;;;;;5084913;28;20070;-77
2021/04/30 08:19:03;;;;;;;5.60;1.20;;;18.30;66.70;;;;;;5092436;28;20020;-73
2021/04/30 08:21:30;;;;;;;1.75;0.75;;;18.40;66.60;;;;;;5092862;28;20070;-74
2021/04/30 08:23:57;;;;;;;4.13;1.10;;;18.40;66.50;;;;;;5092094;28;20020;-74
2021/04/30 08:26:24;;;;;;;4.82;0.70;;;18.40;66.30;;;;;;5092876;28;20031;-74
2021/04/30 08:28:52;;;;;;;2.92;0.98;;;18.40;65.70;;;;;;5091695;28;20376;-74
2021/04/30 08:31:22;;;;;;;1.92;0.70;;;18.50;65.20;;;;;;5092776;28;20039;-75
2021/04/30 08:33:51;;;;;;;3.45;1.10;;;18.50;64.70;;;;;;5091736;28;20089;-74
2021/04/30 08:36:18;;;;;;;1.85;0.50;;;18.50;64.10;;;;;;5092601;28;20032;-75
2021/04/30 08:38:45;;;;;;;5.50;1.05;;;18.60;63.70;;;;;;5089815;28;20078;-75
2021/04/30 08:41:11;;;;;;;3.70;0.75;;;18.60;63.60;;;;;;5090769;28;20055;-74
2021/04/30 08:43:40;;;;;;;2.20;0.90;;;18.60;63.20;;;;;;5092422;28;20028;-75
2021/04/30 08:46:06;;;;;;;2.25;0.77;;;18.70;62.90;;;;;;5091187;28;20440;-74
2021/04/30 08:48:34;;;;;;;3.95;0.85;;;18.70;62.80;;;;;;5091750;28;20476;-74
2021/04/30 08:51:01;;;;;;;3.85;1.58;;;18.80;62.40;;;;;;5090039;28;20016;-75
2021/04/30 08:53:28;;;;;;;6.53;1.85;;;18.80;62.30;;;;;;5091933;28;20099;-74
2021/04/30 08:55:57;;;;;;;6.03;0.80;;;18.90;62.00;;;;;;5091849;28;20028;-74
2021/04/30 08:58:27;;;;;;;4.68;1.30;;;18.90;61.60;;;;;;5091726;28;20084;-75
2021/04/30 09:00:55;;;;;;;3.80;1.00;;;19.00;61.80;;;;;;5073273;28;20024;-74
2021/04/30 09:03:22;;;;;;;6.43;1.15;;;19.00;61.70;;;;;;5072518;28;20028;-73
2021/04/30 09:05:55;;;;;;;2.53;0.60;;;19.10;61.40;;;;;;5092112;28;20029;-74
2021/04/30 09:08:23;;;;;;;7.05;2.40;;;19.10;61.30;;;;;;5091147;28;20016;-74
2021/04/30 09:10:50;;;;;;;7.32;3.30;;;19.10;61.20;;;;;;5089267;28;20032;-74
2021/04/30 09:13:22;;;;;;;4.82;1.98;;;19.20;61.10;;;;;;5086539;28;20127;-74
2021/04/30 09:16:08;;;;;;;2.90;1.40;;;19.20;60.50;;;;;;5082820;28;20936;-74
2021/04/30 09:18:35;;;;;;;8.00;1.52;;;19.30;60.10;;;;;;5085810;28;20020;-73
2021/04/30 09:21:11;;;;;;;3.35;1.17;;;19.30;60.40;;;;;;5089451;28;20035;-74
2021/04/30 09:23:37;;;;;;;;;;;19.30;60.30;;;;;;5086301;28;20059;-74
2021/04/30 09:26:20;;;;;;;2.80;1.48;;;19.30;60.30;;;;;;5088301;28;19973;-74
2021/04/30 09:29:00;;;;;;;3.78;1.17;;;19.30;60.30;;;;;;5086928;28;20016;-74
2021/04/30 09:31:51;;;;;;;5.28;1.00;;;19.50;60.10;;;;;;5083930;28;20040;-75
2021/04/30 09:34:35;;;;;;;2.42;0.73;;;19.50;59.60;;;;;;5081552;28;20080;-74
2021/04/30 09:37:02;;;;;;;3.53;1.08;;;19.60;59.30;;;;;;5085733;28;20073;-74
2021/04/30 09:39:30;;;;;;;5.32;1.45;;;19.60;59.00;;;;;;5082591;28;20108;-74
2021/04/30 09:42:10;;;;;;;2.78;0.95;;;19.60;58.90;;;;;;5089117;28;20036;-74
2021/04/30 09:44:39;;;;;;;2.47;1.02;;;19.70;59.00;;;;;;5085898;28;20432;-74
2021/04/30 09:47:33;;;;;;;4.50;1.33;;;19.70;58.30;;;;;;5079691;28;20107;-74
2021/04/30 09:50:03;;;;;;;4.55;1.23;;;19.80;58.30;;;;;;5084150;28;20394;-74
2021/04/30 09:52:30;;;;;;;3.92;0.98;;;19.80;58.50;;;;;;5087523;28;20073;-74
2021/04/30 09:55:02;;;;;;;2.10;0.75;;;19.80;58.50;;;;;;5069651;28;20036;-75
2021/04/30 09:57:31;;;;;;;4.70;0.90;;;19.90;58.50;;;;;;5088595;28;20059;-74
2021/04/30 10:00:06;;;;;;;1.98;1.05;;;19.90;58.60;;;;;;5089078;28;20429;-74
2021/04/30 10:02:35;;;;;;;5.50;1.20;;;20.00;58.60;;;;;;5084620;28;20107;-72
2021/04/30 10:05:10;;;;;;;1.75;0.65;;;20.00;58.80;;;;;;5086041;28;20387;-74
2021/04/30 10:07:38;;;;;;;9.40;1.48;;;20.10;59.00;;;;;;5084825;28;20026;-75
2021/04/30 10:10:12;;;;;;;4.28;1.00;;;20.10;58.80;;;;;;5090806;28;20436;-75
2021/04/30 10:12:44;;;;;;;2.90;1.15;;;20.20;58.90;;;;;;5089734;28;20478;-75
2021/04/30 10:15:19;;;;;;;2.70;0.85;;;20.20;58.80;;;;;;5091099;28;20036;-74
2021/04/30 10:17:46;;;;;;;3.83;1.67;;;20.20;58.80;;;;;;5086884;28;20036;-75
2021/04/30 10:20:15;;;;;;;3.28;1.33;;;20.30;58.80;;;;;;5086852;28;20024;-74
2021/04/30 10:22:44;;;;;;;3.95;1.05;;;20.30;58.50;;;;;;5082952;28;20043;-75
2021/04/30 10:25:15;;;;;;;3.15;1.05;;;20.40;58.60;;;;;;5085219;28;20024;-74
2021/04/30 10:27:44;;;;;;;4.38;1.10;;;20.40;58.60;;;;;;5089984;28;20028;-74
2021/04/30 10:30:32;;;;;;;5.55;1.35;;;20.50;58.40;;;;;;5087218;28;20020;-75
2021/04/30 10:33:02;;;;;;;3.63;0.85;;;20.50;58.20;;;;;;5088161;28;20073;-79
2021/04/30 10:35:58;;;;;;;5.43;1.15;;;20.50;58.00;;;;;;5084265;28;20447;-74
2021/04/30 10:38:29;;;;;;;6.15;1.48;;;20.60;57.90;;;;;;5080490;28;20047;-74
2021/04/30 10:41:05;;;;;;;4.78;1.13;;;20.60;57.70;;;;;;5087302;28;20016;-75
2021/04/30 10:43:33;;;;;;;6.35;1.38;;;20.70;57.90;;;;;;5089506;28;20020;-74
2021/04/30 10:46:07;;;;;;;6.13;1.00;;;20.70;57.30;;;;;;5090509;28;20382;-74
2021/04/30 10:48:40;;;;;;;9.77;2.00;;;20.70;57.30;;;;;;5090205;28;20020;-75
2021/04/30 10:51:13;;;;;;;7.07;1.27;;;20.80;57.20;;;;;;5080908;28;20111;-74
2021/04/30 10:53:43;;;;;;;5.13;1.45;;;20.80;57.10;;;;;;5089185;28;20510;-75
2021/04/30 10:56:33;;;;;;;3.17;1.73;;;20.80;56.90;;;;;;5089120;28;20487;-75
2021/04/30 10:59:00;;;;;;;5.18;1.60;;;20.80;56.80;;;;;;5082762;28;20023;-75
2021/04/30 11:01:33;;;;;;;2.35;1.05;;;20.90;56.60;;;;;;5082817;28;20004;-75
2021/04/30 11:04:13;;;;;;;6.28;1.20;;;20.90;56.40;;;;;;5069131;28;20245;-76
2021/04/30 11:06:43;;;;;;;3.53;1.42;;;21.00;56.30;;;;;;5089479;28;20101;-74
2021/04/30 11:09:23;;;;;;;2.75;1.02;;;21.00;56.40;;;;;;5080402;28;20024;-74
2021/04/30 11:11:49;;;;;;;5.85;2.83;;;21.10;56.20;;;;;;5082781;28;20035;-75
2021/04/30 11:14:19;;;;;;;2.25;0.63;;;21.10;56.10;;;;;;5085907;28;20024;-75
2021/04/30 11:16:46;;;;;;;3.65;0.82;;;21.10;55.70;;;;;;5085730;28;20024;-76
2021/04/30 11:19:13;;;;;;;3.75;1.15;;;21.20;55.50;;;;;;5083479;28;20380;-75
2021/04/30 11:21:50;;;;;;;5.65;1.00;;;21.20;55.40;;;;;;5082733;28;20020;-75
2021/04/30 11:24:28;;;;;;;6.80;1.45;;;21.20;55.20;;;;;;5084478;28;20107;-75
2021/04/30 11:27:31;;;;;;;6.07;1.02;;;21.30;54.80;;;;;;5084750;28;20603;-75
2021/04/30 11:30:17;;;;;;;5.28;0.90;;;21.30;54.60;;;;;;5027660;28;20032;-75
2021/04/30 11:32:50;;;;;;;5.53;1.15;;;21.40;54.30;;;;;;5088842;28;20538;-75
2021/04/30 11:35:17;;;;;;;3.42;1.60;;;21.40;54.30;;;;;;5085299;28;20120;-75
2021/04/30 11:37:45;;;;;;;7.95;1.17;;;21.40;54.20;;;;;;5090767;28;20024;-75
2021/04/30 11:40:15;;;;;;;4.35;1.05;;;21.50;53.90;;;;;;5087979;28;20056;-75
2021/04/30 11:42:42;;;;;;;6.55;1.10;;;21.50;53.80;;;;;;5089283;28;20016;-75
2021/04/30 11:45:09;;;;;;;5.25;1.23;;;21.50;53.80;;;;;;5090073;28;20031;-75
2021/04/30 11:47:38;;;;;;;3.95;1.42;;;21.60;53.30;;;;;;5091681;28;20607;-75
2021/04/30 11:50:08;;;;;;;3.58;1.63;;;21.60;53.40;;;;;;5090634;28;20027;-74
2021/04/30 11:52:46;;;;;;;2.42;0.80;;;21.60;53.30;;;;;;5088997;28;20495;-76
2021/04/30 11:55:18;;;;;;;7.35;1.38;;;21.70;53.30;;;;;;5088568;28;20039;-77
2021/04/30 11:57:58;;;;;;;4.97;2.35;;;21.70;52.90;;;;;;5084683;28;20471;-76
2021/04/30 12:00:32;;;;;;;4.63;1.55;;;21.70;52.80;;;;;;5089486;28;20106;-76
2021/04/30 12:03:08;;;;;;;3.97;1.50;;;21.70;52.60;;;;;;5091166;28;20058;-77
2021/04/30 12:05:35;;;;;;;4.68;1.52;;;21.80;52.20;;;;;;5087700;28;20096;-76
2021/04/30 12:08:03;;;;;;;3.58;1.20;;;21.80;52.20;;;;;;5086702;28;20102;-77
2021/04/30 12:10:32;;;;;;;3.97;1.73;;;21.80;52.00;;;;;;5090047;28;20022;-76
2021/04/30 12:13:00;;;;;;;2.78;0.90;;;21.90;51.90;;;;;;5070580;28;20024;-77
2021/04/30 12:15:38;;;;;;;3.80;1.23;;;21.90;51.60;;;;;;5089585;28;20074;-76
2021/04/30 12:18:06;;;;;;;4.07;1.48;;;21.90;51.30;;;;;;5090371;28;20036;-76
2021/04/30 12:20:35;;;;;;;7.32;1.40;;;21.90;51.00;;;;;;5090943;28;20032;-77
2021/04/30 12:23:11;;;;;;;3.00;1.05;;;21.90;50.90;;;;;;5088996;28;20016;-76
2021/04/30 12:25:44;;;;;;;2.35;0.85;;;21.90;51.40;;;;;;5091200;28;20495;-76
2021/04/30 12:28:20;;;;;;;4.03;1.00;;;21.90;50.80;;;;;;5086413;28;20479;-77
2021/04/30 12:30:55;;;;;;;2.67;0.85;;;21.90;50.80;;;;;;5087634;28;20055;-75
2021/04/30 12:33:36;;;;;;;3.88;1.00;;;21.90;50.70;;;;;;5086342;28;20020;-77
2021/04/30 12:36:10;;;;;;;4.53;0.77;;;21.90;50.80;;;;;;5070968;28;20041;-76
2021/04/30 12:38:39;;;;;;;2.20;1.10;;;21.90;50.90;;;;;;5085696;28;20476;-76
2021/04/30 12:41:18;;;;;;;8.88;4.75;;;22.00;50.70;;;;;;5090258;28;20551;-76
2021/04/30 12:43:49;;;;;;;4.25;1.35;;;22.00;50.20;;;;;;5083756;28;20020;-75
2021/04/30 12:46:22;;;;;;;4.93;2.03;;;21.90;50.40;;;;;;5089688;28;20444;-75
2021/04/30 12:48:53;;;;;;;10.65;1.80;;;22.00;50.70;;;;;;5087380;28;20474;-75
2021/04/30 12:51:28;;;;;;;10.43;1.58;;;22.00;50.80;;;;;;5083483;28;20019;-75
2021/04/30 12:53:55;;;;;;;5.40;0.93;;;22.00;50.80;;;;;;5075373;28;20364;-75